sensor_id;sensor_type;location;lat;lon;timestamp;pressure;altitude;pressure_sealevel;temperature;humidity
30339;BME280;795;49.296;11.348;2023-03-01T00:01:41;97129.88;;;-2.35;100.00
30339;BME280;795;49.296;11.348;2023-03-01T00:04:08;97131.31;;;-2.28;100.00
30339;BME280;795;49.296;11.348;2023-03-01T00:06:35;97123.59;;;-2.32;100.00
30339;BME280;795;49.296;11.348;2023-03-01T00:09:02;97111.41;;;-2.33;100.00
30339;BME280;795;49.296;11.348;2023-03-01T00:11:32;97130.34;;;-2.27;100.00
30339;BME280;795;49.296;11.348;2023-03-01T00:14:01;97133.06;;;-2.28;100.00
30339;BME280;795;49.296;11.348;2023-03-01T00:16:34;97131.34;;;-2.29;100.00
30339;BME280;795;49.296;11.348;2023-03-01T00:19:02;97122.84;;;-2.34;100.00
30339;BME280;795;49.296;11.348;2023-03-01T00:21:29;97133.06;;;-2.28;100.00
30339;BME280;795;49.296;11.348;2023-03-01T00:23:57;97131.91;;;-2.23;100.00
30339;BME280;795;49.296;11.348;2023-03-01T00:26:27;97129.00;;;-2.17;100.00
30339;BME280;795;49.296;11.348;2023-03-01T00:28:57;97126.44;;;-2.18;100.00
30339;BME280;795;49.296;11.348;2023-03-01T00:31:30;97120.72;;;-2.09;100.00
30339;BME280;795;49.296;11.348;2023-03-01T00:34:02;97127.41;;;-2.02;100.00
30339;BME280;795;49.296;11.348;2023-03-01T00:36:34;97130.41;;;-1.92;100.00
30339;BME280;795;49.296;11.348;2023-03-01T00:39:07;97098.69;;;-2.07;100.00
30339;BME280;795;49.296;11.348;2023-03-01T00:41:36;97128.94;;;-1.81;100.00
30339;BME280;795;49.296;11.348;2023-03-01T00:44:03;97126.94;;;-1.76;100.00
30339;BME280;795;49.296;11.348;2023-03-01T00:46:30;97123.53;;;-1.78;100.00
30339;BME280;795;49.296;11.348;2023-03-01T00:48:58;97115.03;;;-1.83;100.00
30339;BME280;795;49.296;11.348;2023-03-01T00:51:28;97112.72;;;-1.89;100.00
30339;BME280;795;49.296;11.348;2023-03-01T00:54:00;97112.63;;;-1.87;100.00
30339;BME280;795;49.296;11.348;2023-03-01T00:56:28;97125.47;;;-1.81;100.00
30339;BME280;795;49.296;11.348;2023-03-01T00:58:56;97105.81;;;-1.91;100.00
30339;BME280;795;49.296;11.348;2023-03-01T01:01:28;97104.25;;;-1.95;100.00
30339;BME280;795;49.296;11.348;2023-03-01T01:04:11;97116.78;;;-1.83;100.00
30339;BME280;795;49.296;11.348;2023-03-01T01:06:45;97107.44;;;-1.72;100.00
30339;BME280;795;49.296;11.348;2023-03-01T01:09:17;97109.47;;;-1.77;100.00
30339;BME280;795;49.296;11.348;2023-03-01T01:11:49;97100.56;;;-1.91;100.00
30339;BME280;795;49.296;11.348;2023-03-01T01:14:18;97097.13;;;-1.93;100.00
30339;BME280;795;49.296;11.348;2023-03-01T01:16:46;97093.03;;;-1.99;100.00
30339;BME280;795;49.296;11.348;2023-03-01T01:19:14;97088.31;;;-2.10;100.00
30339;BME280;795;49.296;11.348;2023-03-01T01:21:41;97092.09;;;-2.15;100.00
30339;BME280;795;49.296;11.348;2023-03-01T01:24:12;97059.09;;;-2.39;100.00
30339;BME280;795;49.296;11.348;2023-03-01T01:26:39;97054.69;;;-2.39;100.00
30339;BME280;795;49.296;11.348;2023-03-01T01:29:07;97089.81;;;-2.23;100.00
30339;BME280;795;49.296;11.348;2023-03-01T01:31:37;97085.75;;;-2.28;100.00
30339;BME280;795;49.296;11.348;2023-03-01T01:34:09;97082.34;;;-2.30;100.00
30339;BME280;795;49.296;11.348;2023-03-01T01:36:39;97068.16;;;-2.45;100.00
30339;BME280;795;49.296;11.348;2023-03-01T01:39:06;97074.66;;;-2.35;100.00
30339;BME280;795;49.296;11.348;2023-03-01T01:41:33;97058.88;;;-2.52;100.00
30339;BME280;795;49.296;11.348;2023-03-01T01:44:27;97076.03;;;-2.45;100.00
30339;BME280;795;49.296;11.348;2023-03-01T01:47:20;97061.78;;;-2.58;100.00
30339;BME280;795;49.296;11.348;2023-03-01T01:49:56;97048.44;;;-2.72;100.00
30339;BME280;795;49.296;11.348;2023-03-01T01:52:37;97059.94;;;-2.56;100.00
30339;BME280;795;49.296;11.348;2023-03-01T01:55:24;97052.91;;;-2.55;100.00
30339;BME280;795;49.296;11.348;2023-03-01T01:57:58;97036.41;;;-2.59;100.00
30339;BME280;795;49.296;11.348;2023-03-01T02:00:29;97056.06;;;-2.49;100.00
30339;BME280;795;49.296;11.348;2023-03-01T02:03:14;97050.75;;;-2.47;100.00
30339;BME280;795;49.296;11.348;2023-03-01T02:06:12;97039.63;;;-2.52;100.00
30339;BME280;795;49.296;11.348;2023-03-01T02:08:43;97024.97;;;-2.58;100.00
30339;BME280;795;49.296;11.348;2023-03-01T02:11:13;97007.03;;;-2.67;100.00
30339;BME280;795;49.296;11.348;2023-03-01T02:13:42;97035.66;;;-2.44;100.00
30339;BME280;795;49.296;11.348;2023-03-01T02:16:14;97040.06;;;-2.44;100.00
30339;BME280;795;49.296;11.348;2023-03-01T02:18:44;97028.88;;;-2.48;100.00
30339;BME280;795;49.296;11.348;2023-03-01T02:21:55;97010.22;;;-2.60;100.00
30339;BME280;795;49.296;11.348;2023-03-01T02:30:18;97030.72;;;-2.50;100.00
30339;BME280;795;49.296;11.348;2023-03-01T02:32:47;97012.75;;;-2.59;100.00
30339;BME280;795;49.296;11.348;2023-03-01T02:35:18;97016.31;;;-2.60;100.00
30339;BME280;795;49.296;11.348;2023-03-01T02:37:48;96987.94;;;-2.71;100.00
30339;BME280;795;49.296;11.348;2023-03-01T02:40:18;97010.59;;;-2.68;100.00
30339;BME280;795;49.296;11.348;2023-03-01T02:42:57;97021.59;;;-2.60;100.00
30339;BME280;795;49.296;11.348;2023-03-01T02:45:27;96998.16;;;-2.64;100.00
30339;BME280;795;49.296;11.348;2023-03-01T02:47:56;97015.97;;;-2.52;100.00
30339;BME280;795;49.296;11.348;2023-03-01T02:53:21;97013.28;;;-2.70;100.00
30339;BME280;795;49.296;11.348;2023-03-01T02:55:52;96994.31;;;-2.76;100.00
30339;BME280;795;49.296;11.348;2023-03-01T02:58:19;96979.72;;;-2.82;100.00
30339;BME280;795;49.296;11.348;2023-03-01T03:00:47;96995.19;;;-2.76;100.00
30339;BME280;795;49.296;11.348;2023-03-01T03:03:20;97000.66;;;-2.80;100.00
30339;BME280;795;49.296;11.348;2023-03-01T03:05:48;96969.97;;;-2.97;100.00
30339;BME280;795;49.296;11.348;2023-03-01T03:08:15;96982.09;;;-2.94;100.00
30339;BME280;795;49.296;11.348;2023-03-01T03:10:50;96976.13;;;-2.98;100.00
30339;BME280;795;49.296;11.348;2023-03-01T03:13:17;96980.88;;;-2.87;100.00
30339;BME280;795;49.296;11.348;2023-03-01T03:15:45;96985.44;;;-2.91;100.00
30339;BME280;795;49.296;11.348;2023-03-01T03:18:17;96972.94;;;-3.04;100.00
30339;BME280;795;49.296;11.348;2023-03-01T03:20:45;96960.34;;;-3.15;100.00
30339;BME280;795;49.296;11.348;2023-03-01T03:23:13;96968.28;;;-3.16;100.00
30339;BME280;795;49.296;11.348;2023-03-01T03:25:40;96978.41;;;-3.09;100.00
30339;BME280;795;49.296;11.348;2023-03-01T03:28:07;96979.81;;;-3.02;100.00
30339;BME280;795;49.296;11.348;2023-03-01T03:30:40;96974.31;;;-3.14;100.00
30339;BME280;795;49.296;11.348;2023-03-01T03:33:11;96956.94;;;-3.36;100.00
30339;BME280;795;49.296;11.348;2023-03-01T03:35:47;96976.53;;;-3.43;100.00
30339;BME280;795;49.296;11.348;2023-03-01T03:38:19;96981.19;;;-3.68;100.00
30339;BME280;795;49.296;11.348;2023-03-01T03:41:03;96968.56;;;-3.60;100.00
30339;BME280;795;49.296;11.348;2023-03-01T03:43:34;96947.44;;;-3.57;100.00
30339;BME280;795;49.296;11.348;2023-03-01T03:46:03;96942.91;;;-3.72;100.00
30339;BME280;795;49.296;11.348;2023-03-01T03:48:42;96973.31;;;-3.68;100.00
30339;BME280;795;49.296;11.348;2023-03-01T03:51:14;96948.91;;;-3.88;100.00
30339;BME280;795;49.296;11.348;2023-03-01T03:53:43;96960.03;;;-3.83;100.00
30339;BME280;795;49.296;11.348;2023-03-01T03:56:11;96946.84;;;-3.82;100.00
30339;BME280;795;49.296;11.348;2023-03-01T03:58:38;96953.94;;;-3.84;100.00
30339;BME280;795;49.296;11.348;2023-03-01T04:01:06;96958.34;;;-3.84;100.00
30339;BME280;795;49.296;11.348;2023-03-01T04:03:34;96949.91;;;-4.11;100.00
30339;BME280;795;49.296;11.348;2023-03-01T04:06:03;96962.56;;;-4.00;100.00
30339;BME280;795;49.296;11.348;2023-03-01T04:08:31;96975.19;;;-3.90;100.00
30339;BME280;795;49.296;11.348;2023-03-01T04:11:03;96969.50;;;-3.99;100.00
30339;BME280;795;49.296;11.348;2023-03-01T04:13:54;96962.47;;;-3.99;100.00
30339;BME280;795;49.296;11.348;2023-03-01T04:16:22;96970.09;;;-3.93;100.00
30339;BME280;795;49.296;11.348;2023-03-01T04:18:50;96958.56;;;-4.09;100.00
30339;BME280;795;49.296;11.348;2023-03-01T04:21:17;96961.34;;;-4.12;100.00
30339;BME280;795;49.296;11.348;2023-03-01T04:23:44;96965.78;;;-4.14;100.00
30339;BME280;795;49.296;11.348;2023-03-01T04:26:11;96970.03;;;-4.12;100.00
30339;BME280;795;49.296;11.348;2023-03-01T04:28:42;96977.28;;;-4.17;100.00
30339;BME280;795;49.296;11.348;2023-03-01T04:31:17;96972.28;;;-4.23;100.00
30339;BME280;795;49.296;11.348;2023-03-01T04:33:55;96957.13;;;-3.96;100.00
30339;BME280;795;49.296;11.348;2023-03-01T04:36:27;96950.31;;;-4.00;100.00
30339;BME280;795;49.296;11.348;2023-03-01T04:38:56;96940.41;;;-4.14;100.00
30339;BME280;795;49.296;11.348;2023-03-01T04:41:24;96964.97;;;-3.96;100.00
30339;BME280;795;49.296;11.348;2023-03-01T04:43:52;96952.72;;;-3.95;100.00
30339;BME280;795;49.296;11.348;2023-03-01T04:46:20;96967.19;;;-3.87;100.00
30339;BME280;795;49.296;11.348;2023-03-01T04:48:48;96950.81;;;-3.92;100.00
30339;BME280;795;49.296;11.348;2023-03-01T04:51:16;96957.13;;;-3.96;100.00
30339;BME280;795;49.296;11.348;2023-03-01T04:53:44;96960.94;;;-3.84;100.00
30339;BME280;795;49.296;11.348;2023-03-01T04:56:12;96963.03;;;-3.72;100.00
30339;BME280;795;49.296;11.348;2023-03-01T04:58:41;96971.28;;;-3.61;100.00
30339;BME280;795;49.296;11.348;2023-03-01T05:01:15;96952.91;;;-3.61;100.00
30339;BME280;795;49.296;11.348;2023-03-01T05:03:49;96952.81;;;-3.60;100.00
30339;BME280;795;49.296;11.348;2023-03-01T05:06:19;96958.59;;;-3.52;100.00
30339;BME280;795;49.296;11.348;2023-03-01T05:08:47;96937.38;;;-3.66;100.00
30339;BME280;795;49.296;11.348;2023-03-01T05:11:14;96953.00;;;-3.44;100.00
30339;BME280;795;49.296;11.348;2023-03-01T05:13:41;96925.13;;;-3.47;100.00
30339;BME280;795;49.296;11.348;2023-03-01T05:16:10;96943.59;;;-3.31;100.00
30339;BME280;795;49.296;11.348;2023-03-01T05:18:40;96952.34;;;-3.30;100.00
30339;BME280;795;49.296;11.348;2023-03-01T05:21:14;96947.13;;;-3.13;100.00
30339;BME280;795;49.296;11.348;2023-03-01T05:23:45;96944.69;;;-2.99;100.00
30339;BME280;795;49.296;11.348;2023-03-01T05:26:15;96930.00;;;-3.03;100.00
30339;BME280;795;49.296;11.348;2023-03-01T05:28:58;96926.00;;;-3.10;100.00
30339;BME280;795;49.296;11.348;2023-03-01T05:31:27;96926.66;;;-3.07;100.00
30339;BME280;795;49.296;11.348;2023-03-01T05:33:54;96942.47;;;-2.90;100.00
30339;BME280;795;49.296;11.348;2023-03-01T05:36:21;96928.66;;;-2.93;100.00
30339;BME280;795;49.296;11.348;2023-03-01T05:38:48;96930.28;;;-2.91;100.00
30339;BME280;795;49.296;11.348;2023-03-01T05:41:15;96935.94;;;-2.81;100.00
30339;BME280;795;49.296;11.348;2023-03-01T05:43:43;96922.94;;;-2.84;100.00
30339;BME280;795;49.296;11.348;2023-03-01T05:46:11;96929.97;;;-2.85;100.00
30339;BME280;795;49.296;11.348;2023-03-01T05:48:40;96920.78;;;-2.93;100.00
30339;BME280;795;49.296;11.348;2023-03-01T05:51:07;96935.31;;;-2.86;100.00
30339;BME280;795;49.296;11.348;2023-03-01T05:53:34;96936.31;;;-2.89;100.00
30339;BME280;795;49.296;11.348;2023-03-01T05:56:04;96918.13;;;-2.93;100.00
30339;BME280;795;49.296;11.348;2023-03-01T05:58:31;96926.47;;;-2.85;100.00
30339;BME280;795;49.296;11.348;2023-03-01T06:00:58;96918.69;;;-2.87;100.00
30339;BME280;795;49.296;11.348;2023-03-01T06:03:25;96902.91;;;-3.04;100.00
30339;BME280;795;49.296;11.348;2023-03-01T06:05:57;96918.13;;;-2.93;100.00
30339;BME280;795;49.296;11.348;2023-03-01T06:08:24;96900.91;;;-2.99;100.00
30339;BME280;795;49.296;11.348;2023-03-01T06:10:53;96924.31;;;-2.94;100.00
30339;BME280;795;49.296;11.348;2023-03-01T06:13:21;96906.78;;;-2.94;100.00
30339;BME280;795;49.296;11.348;2023-03-01T06:15:49;96914.97;;;-2.83;100.00
30339;BME280;795;49.296;11.348;2023-03-01T06:18:16;96914.28;;;-2.86;100.00
30339;BME280;795;49.296;11.348;2023-03-01T06:20:43;96929.19;;;-2.87;100.00
30339;BME280;795;49.296;11.348;2023-03-01T06:23:10;96929.97;;;-2.85;100.00
30339;BME280;795;49.296;11.348;2023-03-01T06:25:37;96920.22;;;-2.83;100.00
30339;BME280;795;49.296;11.348;2023-03-01T06:28:04;96919.16;;;-2.79;100.00
30339;BME280;795;49.296;11.348;2023-03-01T06:30:31;96897.59;;;-2.85;100.00
30339;BME280;795;49.296;11.348;2023-03-01T06:32:58;96903.31;;;-2.77;100.00
30339;BME280;795;49.296;11.348;2023-03-01T06:35:28;96904.78;;;-2.72;100.00
30339;BME280;795;49.296;11.348;2023-03-01T06:38:01;96927.50;;;-2.53;100.00
30339;BME280;795;49.296;11.348;2023-03-01T06:40:29;96924.81;;;-2.52;100.00
30339;BME280;795;49.296;11.348;2023-03-01T06:42:58;96926.66;;;-2.54;100.00
30339;BME280;795;49.296;11.348;2023-03-01T06:45:25;96910.34;;;-2.60;100.00
30339;BME280;795;49.296;11.348;2023-03-01T06:47:57;96924.63;;;-2.49;100.00
30339;BME280;795;49.296;11.348;2023-03-01T06:50:27;96948.25;;;-2.30;100.00
30339;BME280;795;49.296;11.348;2023-03-01T06:52:58;96940.16;;;-2.27;100.00
30339;BME280;795;49.296;11.348;2023-03-01T06:55:24;96924.34;;;-2.26;100.00
30339;BME280;795;49.296;11.348;2023-03-01T06:58:00;96915.59;;;-2.26;100.00
30339;BME280;795;49.296;11.348;2023-03-01T07:00:29;96936.28;;;-2.03;100.00
30339;BME280;795;49.296;11.348;2023-03-01T07:03:00;96927.75;;;-1.91;100.00
30339;BME280;795;49.296;11.348;2023-03-01T07:05:30;96923.41;;;-1.44;100.00
30339;BME280;795;49.296;11.348;2023-03-01T07:07:57;96898.59;;;-1.08;100.00
30339;BME280;795;49.296;11.348;2023-03-01T07:10:24;96928.03;;;-0.41;100.00
30339;BME280;795;49.296;11.348;2023-03-01T07:12:58;96915.53;;;-0.37;98.60
30339;BME280;795;49.296;11.348;2023-03-01T07:15:28;96919.19;;;0.04;95.63
30339;BME280;795;49.296;11.348;2023-03-01T07:17:56;96921.19;;;0.43;91.74
30339;BME280;795;49.296;11.348;2023-03-01T07:20:23;96896.28;;;0.47;87.10
30339;BME280;795;49.296;11.348;2023-03-01T07:22:55;96892.22;;;0.55;86.28
30339;BME280;795;49.296;11.348;2023-03-01T07:25:25;96901.25;;;0.80;83.30
30339;BME280;795;49.296;11.348;2023-03-01T07:27:53;96884.53;;;1.06;80.62
30339;BME280;795;49.296;11.348;2023-03-01T07:30:21;96901.00;;;1.50;76.79
30339;BME280;795;49.296;11.348;2023-03-01T07:32:48;96907.41;;;1.46;77.10
30339;BME280;795;49.296;11.348;2023-03-01T07:35:16;96895.47;;;1.53;75.91
30339;BME280;795;49.296;11.348;2023-03-01T07:37:43;96902.72;;;1.89;74.87
30339;BME280;795;49.296;11.348;2023-03-01T07:40:12;96884.84;;;1.80;73.42
30339;BME280;795;49.296;11.348;2023-03-01T07:42:38;96912.91;;;1.82;73.01
30339;BME280;795;49.296;11.348;2023-03-01T07:45:06;96903.47;;;1.78;73.53
30339;BME280;795;49.296;11.348;2023-03-01T07:47:35;96892.38;;;1.98;72.50
30339;BME280;795;49.296;11.348;2023-03-01T07:50:03;96896.69;;;1.87;72.20
30339;BME280;795;49.296;11.348;2023-03-01T07:52:30;96887.06;;;2.11;72.03
30339;BME280;795;49.296;11.348;2023-03-01T07:54:57;96880.72;;;2.14;71.16
30339;BME280;795;49.296;11.348;2023-03-01T07:57:25;96889.53;;;2.27;70.38
30339;BME280;795;49.296;11.348;2023-03-01T07:59:51;96893.44;;;2.34;70.80
30339;BME280;795;49.296;11.348;2023-03-01T08:02:18;96895.56;;;2.16;70.06
30339;BME280;795;49.296;11.348;2023-03-01T08:04:45;96877.00;;;2.41;70.14
30339;BME280;795;49.296;11.348;2023-03-01T08:07:12;96856.53;;;2.43;67.93
30339;BME280;795;49.296;11.348;2023-03-01T08:09:39;96868.91;;;2.55;67.07
30339;BME280;795;49.296;11.348;2023-03-01T08:12:06;96882.94;;;2.32;68.05
30339;BME280;795;49.296;11.348;2023-03-01T08:14:33;96870.56;;;2.69;66.80
30339;BME280;795;49.296;11.348;2023-03-01T08:17:00;96875.31;;;2.89;65.95
30339;BME280;795;49.296;11.348;2023-03-01T08:19:29;96878.94;;;3.12;66.08
30339;BME280;795;49.296;11.348;2023-03-01T08:21:56;96882.19;;;3.15;65.10
30339;BME280;795;49.296;11.348;2023-03-01T08:24:24;96878.59;;;3.16;64.78
30339;BME280;795;49.296;11.348;2023-03-01T08:26:52;96897.34;;;3.50;63.68
30339;BME280;795;49.296;11.348;2023-03-01T08:29:18;96901.00;;;3.60;61.89
30339;BME280;795;49.296;11.348;2023-03-01T08:31:46;96882.53;;;3.58;62.49
30339;BME280;795;49.296;11.348;2023-03-01T08:34:17;96890.66;;;3.68;60.54
30339;BME280;795;49.296;11.348;2023-03-01T08:36:46;96864.84;;;3.81;60.88
30339;BME280;795;49.296;11.348;2023-03-01T08:39:17;96900.72;;;4.21;60.64
30339;BME280;795;49.296;11.348;2023-03-01T08:41:46;96875.47;;;3.81;60.02
30339;BME280;795;49.296;11.348;2023-03-01T08:44:16;96879.06;;;3.69;59.98
30339;BME280;795;49.296;11.348;2023-03-01T08:46:48;96901.03;;;4.17;59.90
30339;BME280;795;49.296;11.348;2023-03-01T08:49:19;96896.03;;;4.36;58.94
30339;BME280;795;49.296;11.348;2023-03-01T08:51:47;96879.47;;;4.65;57.75
30339;BME280;795;49.296;11.348;2023-03-01T08:54:20;96888.03;;;4.91;57.08
30339;BME280;795;49.296;11.348;2023-03-01T08:56:48;96882.00;;;4.89;57.04
30339;BME280;795;49.296;11.348;2023-03-01T08:59:17;96852.31;;;5.05;56.41
30339;BME280;795;49.296;11.348;2023-03-01T09:03:36;96875.50;;;5.25;55.93
30339;BME280;795;49.296;11.348;2023-03-01T09:06:06;96848.84;;;5.36;54.21
30339;BME280;795;49.296;11.348;2023-03-01T09:08:40;96871.72;;;5.38;54.73
30339;BME280;795;49.296;11.348;2023-03-01T09:11:13;96850.09;;;5.21;55.12
30339;BME280;795;49.296;11.348;2023-03-01T09:13:40;96855.91;;;6.10;53.04
30339;BME280;795;49.296;11.348;2023-03-01T09:16:13;96843.03;;;5.42;53.75
30339;BME280;795;49.296;11.348;2023-03-01T09:18:41;96837.91;;;6.03;53.36
30339;BME280;795;49.296;11.348;2023-03-01T09:21:13;96851.19;;;5.61;54.03
30339;BME280;795;49.296;11.348;2023-03-01T09:23:45;96853.00;;;5.92;53.11
30339;BME280;795;49.296;11.348;2023-03-01T09:26:20;96846.06;;;7.01;50.55
30339;BME280;795;49.296;11.348;2023-03-01T09:28:55;96830.84;;;6.83;49.57
30339;BME280;795;49.296;11.348;2023-03-01T09:31:24;96843.72;;;7.27;50.09
30339;BME280;795;49.296;11.348;2023-03-01T09:33:54;96819.44;;;7.49;48.54
30339;BME280;795;49.296;11.348;2023-03-01T09:36:24;96845.59;;;6.87;49.08
30339;BME280;795;49.296;11.348;2023-03-01T09:38:52;96844.91;;;6.54;51.12
30339;BME280;795;49.296;11.348;2023-03-01T09:47:22;96834.06;;;6.77;49.47
30339;BME280;795;49.296;11.348;2023-03-01T09:50:20;96833.44;;;7.03;49.03
30339;BME280;795;49.296;11.348;2023-03-01T09:55:40;96845.44;;;7.76;47.80
30339;BME280;795;49.296;11.348;2023-03-01T09:59:10;96839.66;;;8.38;45.34
30339;BME280;795;49.296;11.348;2023-03-01T10:02:09;96830.38;;;8.96;45.13
30339;BME280;795;49.296;11.348;2023-03-01T10:08:13;96827.88;;;7.73;46.54
30339;BME280;795;49.296;11.348;2023-03-01T10:10:47;96836.66;;;6.97;47.48
30339;BME280;795;49.296;11.348;2023-03-01T10:13:37;96845.50;;;7.07;47.81
30339;BME280;795;49.296;11.348;2023-03-01T10:16:21;96852.91;;;8.01;46.42
30339;BME280;795;49.296;11.348;2023-03-01T10:18:59;96814.88;;;8.07;45.84
30339;BME280;795;49.296;11.348;2023-03-01T10:21:29;96843.56;;;8.24;46.28
30339;BME280;795;49.296;11.348;2023-03-01T10:24:14;96833.19;;;8.67;45.38
30339;BME280;795;49.296;11.348;2023-03-01T10:27:12;96842.13;;;9.58;43.91
30339;BME280;795;49.296;11.348;2023-03-01T10:30:05;96827.88;;;9.92;43.08
30339;BME280;795;49.296;11.348;2023-03-01T10:32:38;96833.53;;;10.50;42.41
30339;BME280;795;49.296;11.348;2023-03-01T10:35:27;96819.09;;;11.69;39.27
30339;BME280;795;49.296;11.348;2023-03-01T10:38:12;96801.09;;;12.26;38.45
30339;BME280;795;49.296;11.348;2023-03-01T10:41:04;96795.31;;;12.69;37.01
30339;BME280;795;49.296;11.348;2023-03-01T10:44:34;96808.19;;;11.20;37.94
30339;BME280;795;49.296;11.348;2023-03-01T10:47:02;96789.53;;;11.93;39.24
30339;BME280;795;49.296;11.348;2023-03-01T10:49:29;96785.41;;;12.45;37.07
30339;BME280;795;49.296;11.348;2023-03-01T10:52:17;96771.47;;;12.42;37.35
30339;BME280;795;49.296;11.348;2023-03-01T10:55:00;96771.56;;;12.64;37.11
30339;BME280;795;49.296;11.348;2023-03-01T10:57:39;96781.34;;;12.65;37.07
30339;BME280;795;49.296;11.348;2023-03-01T11:00:24;96767.78;;;12.27;37.34
30339;BME280;795;49.296;11.348;2023-03-01T11:05:26;96758.59;;;11.81;38.05
30339;BME280;795;49.296;11.348;2023-03-01T11:07:58;96752.63;;;12.34;38.28
30339;BME280;795;49.296;11.348;2023-03-01T11:13:18;96743.13;;;14.45;34.37
30339;BME280;795;49.296;11.348;2023-03-01T11:16:07;96753.34;;;15.22;32.84
30339;BME280;795;49.296;11.348;2023-03-01T11:18:36;96737.44;;;14.84;33.66
30339;BME280;795;49.296;11.348;2023-03-01T11:21:16;96744.94;;;15.47;33.02
30339;BME280;795;49.296;11.348;2023-03-01T11:23:46;96729.81;;;15.73;32.42
30339;BME280;795;49.296;11.348;2023-03-01T11:26:16;96727.16;;;15.59;32.25
30339;BME280;795;49.296;11.348;2023-03-01T11:28:53;96722.00;;;14.11;34.11
30339;BME280;795;49.296;11.348;2023-03-01T11:31:25;96733.28;;;14.29;33.53
30339;BME280;795;49.296;11.348;2023-03-01T11:34:14;96719.06;;;12.99;34.51
30339;BME280;795;49.296;11.348;2023-03-01T11:36:59;96701.69;;;12.24;35.25
30339;BME280;795;49.296;11.348;2023-03-01T11:43:00;96713.56;;;13.91;34.83
30339;BME280;795;49.296;11.348;2023-03-01T11:52:39;96709.03;;;14.58;33.44
30339;BME280;795;49.296;11.348;2023-03-01T11:55:58;96710.31;;;13.96;34.16
30339;BME280;795;49.296;11.348;2023-03-01T11:59:00;96703.16;;;14.55;33.58
30339;BME280;795;49.296;11.348;2023-03-01T12:14:20;96668.38;;;14.23;34.13
30339;BME280;795;49.296;11.348;2023-03-01T12:23:20;96669.25;;;14.38;34.44
30339;BME280;795;49.296;11.348;2023-03-01T12:26:02;96681.91;;;14.81;33.69
30339;BME280;795;49.296;11.348;2023-03-01T12:29:13;96660.97;;;15.04;33.40
30339;BME280;795;49.296;11.348;2023-03-01T12:32:16;96652.56;;;15.35;33.34
30339;BME280;795;49.296;11.348;2023-03-01T12:35:39;96634.31;;;16.14;31.73
30339;BME280;795;49.296;11.348;2023-03-01T12:42:08;96640.28;;;15.75;33.45
30339;BME280;795;49.296;11.348;2023-03-01T12:51:20;96632.41;;;15.80;33.27
30339;BME280;795;49.296;11.348;2023-03-01T12:53:53;96623.41;;;15.31;33.50
30339;BME280;795;49.296;11.348;2023-03-01T12:56:34;96633.22;;;14.96;34.34
30339;BME280;795;49.296;11.348;2023-03-01T13:02:37;96623.84;;;15.76;34.10
30339;BME280;795;49.296;11.348;2023-03-01T13:05:55;96614.88;;;14.91;34.23
30339;BME280;795;49.296;11.348;2023-03-01T13:11:29;96615.13;;;14.17;36.25
30339;BME280;795;49.296;11.348;2023-03-01T13:16:55;96598.97;;;15.24;34.25
30339;BME280;795;49.296;11.348;2023-03-01T13:19:28;96630.03;;;14.42;35.61
30339;BME280;795;49.296;11.348;2023-03-01T13:22:30;96617.66;;;15.40;34.59
30339;BME280;795;49.296;11.348;2023-03-01T13:25:17;96617.78;;;14.75;34.94
30339;BME280;795;49.296;11.348;2023-03-01T13:27:46;96613.13;;;14.69;35.84
30339;BME280;795;49.296;11.348;2023-03-01T13:30:40;96606.81;;;14.98;35.44
30339;BME280;795;49.296;11.348;2023-03-01T13:35:50;96595.25;;;15.04;35.86
30339;BME280;795;49.296;11.348;2023-03-01T13:38:57;96590.25;;;14.86;35.80
30339;BME280;795;49.296;11.348;2023-03-01T13:41:56;96604.16;;;14.47;36.68
30339;BME280;795;49.296;11.348;2023-03-01T13:44:31;96608.31;;;15.00;35.66
30339;BME280;795;49.296;11.348;2023-03-01T13:49:56;96582.56;;;15.25;35.38
30339;BME280;795;49.296;11.348;2023-03-01T13:53:01;96587.00;;;14.40;36.33
30339;BME280;795;49.296;11.348;2023-03-01T13:55:52;96599.28;;;13.84;37.90
30339;BME280;795;49.296;11.348;2023-03-01T13:58:44;96602.16;;;13.68;38.07
30339;BME280;795;49.296;11.348;2023-03-01T14:01:35;96606.44;;;13.77;38.39
30339;BME280;795;49.296;11.348;2023-03-01T14:06:49;96591.25;;;13.24;38.94
30339;BME280;795;49.296;11.348;2023-03-01T14:09:26;96589.06;;;13.43;38.67
30339;BME280;795;49.296;11.348;2023-03-01T14:12:16;96606.41;;;13.63;38.71
30339;BME280;795;49.296;11.348;2023-03-01T14:17:46;96599.75;;;13.13;39.64
30339;BME280;795;49.296;11.348;2023-03-01T14:20:30;96607.47;;;14.20;37.76
30339;BME280;795;49.296;11.348;2023-03-01T14:23:10;96611.28;;;13.45;38.78
30339;BME280;795;49.296;11.348;2023-03-01T14:25:49;96601.81;;;12.81;40.17
30339;BME280;795;49.296;11.348;2023-03-01T14:28:24;96593.13;;;12.93;39.84
30339;BME280;795;49.296;11.348;2023-03-01T14:30:58;96594.66;;;13.18;39.83
30339;BME280;795;49.296;11.348;2023-03-01T14:33:34;96594.25;;;12.45;41.08
30339;BME280;795;49.296;11.348;2023-03-01T14:36:09;96590.00;;;12.51;40.84
30339;BME280;795;49.296;11.348;2023-03-01T14:38:46;96595.28;;;12.44;40.83
30339;BME280;795;49.296;11.348;2023-03-01T14:41:23;96593.13;;;11.93;42.14
30339;BME280;795;49.296;11.348;2023-03-01T14:44:00;96587.88;;;11.99;42.64
30339;BME280;795;49.296;11.348;2023-03-01T14:46:43;96590.88;;;12.43;41.19
30339;BME280;795;49.296;11.348;2023-03-01T14:49:24;96581.97;;;12.43;41.65
30339;BME280;795;49.296;11.348;2023-03-01T14:52:02;96569.50;;;11.40;42.79
30339;BME280;795;49.296;11.348;2023-03-01T14:54:44;96582.91;;;11.48;43.19
30339;BME280;795;49.296;11.348;2023-03-01T14:57:25;96568.00;;;12.70;41.41
30339;BME280;795;49.296;11.348;2023-03-01T14:59:58;96588.13;;;12.21;41.35
30339;BME280;795;49.296;11.348;2023-03-01T15:02:29;96573.00;;;10.44;45.48
30339;BME280;795;49.296;11.348;2023-03-01T15:05:02;96570.16;;;10.61;44.64
30339;BME280;795;49.296;11.348;2023-03-01T15:07:41;96584.44;;;10.70;45.82
30339;BME280;795;49.296;11.348;2023-03-01T15:10:26;96584.63;;;10.19;45.95
30339;BME280;795;49.296;11.348;2023-03-01T15:12:54;96592.47;;;9.53;47.74